Station Historical Data
Daily Summary for February 25, 2017 Units:  Both    English   Metric
« Previous Day
Next Day »
Daily Weekly Monthly Yearly Custom
  High: Low: Average:
Temperature: 65.6 °F /  18.7 °C 28.7 °F /  -1.8 °C 42.1 °F /  5.6 °C
Dew Point: 52.6 °F /  11.4 °C 20.9 °F /  -6.2 °C 36.8 °F /  2.7 °C
Humidity: 92% 62% 81%
Wind Speed: 22.0mph /  35.4km/h - 7.9mph /  12.7km/h
Wind Gust: 32.0mph /  51.5km/h - -
Wind- - WSW
Pressure: 29.84 in /  1010.4 hPa 29.44 in /  996.8 hPa -
Precipitation: 0.00 in /  0 mm    
Historical Graphs
 
 
Tabular Data for February 25, 2017
Time Temperature Dew Point Pressure Wind Wind Speed Wind Gust Humidity Rainfall Rate (Hourly)
00:04 65.6 °F /  18.7 °C 52.2 °F /  11.2 °C 29.50in /  998.9hPa SSE 7.0mph /  11.3km/h 12.0mph /  19.3km/h 62% 0.00in /  0mm
00:09 65.4 °F /  18.6 °C 52.0 °F /  11.1 °C 29.50in /  998.9hPa South 6.0mph /  9.7km/h 16.0mph /  25.7km/h 62% 0.00in /  0mm
00:14 65.5 °F /  18.6 °C 52.1 °F /  11.2 °C 29.50in /  998.9hPa SSW 3.0mph /  4.8km/h 14.0mph /  22.5km/h 62% 0.00in /  0mm
00:19 65.2 °F /  18.4 °C 51.8 °F /  11 °C 29.53in /  999.9hPa WNW 6.0mph /  9.7km/h 12.0mph /  19.3km/h 62% 0.00in /  0mm
00:24 62.3 °F /  16.8 °C 49.5 °F /  9.7 °C 29.53in /  999.9hPa West 6.0mph /  9.7km/h 15.0mph /  24.1km/h 63% 0.00in /  0mm
00:29 60.3 °F /  15.7 °C 48.9 °F /  9.4 °C 29.53in /  999.9hPa WNW 6.0mph /  9.7km/h 12.0mph /  19.3km/h 66% 0.00in /  0mm
00:34 58.4 °F /  14.7 °C 48.3 °F /  9.1 °C 29.53in /  999.9hPa West 4.0mph /  6.4km/h 14.0mph /  22.5km/h 69% 0.00in /  0mm
00:39 57.4 °F /  14.1 °C 47.3 °F /  8.5 °C 29.53in /  999.9hPa NNW 4.0mph /  6.4km/h 10.0mph /  16.1km/h 69% 0.00in /  0mm
00:44 55.8 °F /  13.2 °C 46.5 °F /  8.1 °C 29.53in /  999.9hPa WNW 5.0mph /  8km/h 10.0mph /  16.1km/h 71% 0.00in /  0mm
00:49 54.9 °F /  12.7 °C 46.4 °F /  8 °C 29.52in /  999.5hPa WNW 3.0mph /  4.8km/h 8.0mph /  12.9km/h 73% 0.00in /  0mm
00:54 54.3 °F /  12.4 °C 46.2 °F /  7.9 °C 29.52in /  999.5hPa WNW 2.0mph /  3.2km/h 4.0mph /  6.4km/h 74% 0.00in /  0mm
00:59 54.1 °F /  12.3 °C 46.0 °F /  7.8 °C 29.52in /  999.5hPa NW 1.0mph /  1.6km/h 4.0mph /  6.4km/h 74% 0.00in /  0mm
01:04 53.9 °F /  12.2 °C 46.2 °F /  7.9 °C 29.52in /  999.5hPa Calm     75% 0.00in /  0mm
01:09 53.8 °F /  12.1 °C 46.1 °F /  7.8 °C 29.51in /  999.2hPa Calm     75% 0.00in /  0mm
01:14 53.8 °F /  12.1 °C 46.1 °F /  7.8 °C 29.51in /  999.2hPa Calm     75% 0.00in /  0mm
01:19 53.6 °F /  12 °C 46.2 °F /  7.9 °C 29.51in /  999.2hPa Calm     76% 0.00in /  0mm
01:24 53.4 °F /  11.9 °C 46.0 °F /  7.8 °C 29.51in /  999.2hPa Calm     76% 0.00in /  0mm
01:29 53.2 °F /  11.8 °C 46.2 °F /  7.9 °C 29.51in /  999.2hPa Calm     77% 0.00in /  0mm
01:34 53.0 °F /  11.7 °C 46.0 °F /  7.8 °C 29.51in /  999.2hPa Calm     77% 0.00in /  0mm
01:39 53.1 °F /  11.7 °C 46.1 °F /  7.8 °C 29.50in /  998.9hPa Calm     77% 0.00in /  0mm
01:44 53.1 °F /  11.7 °C 46.1 °F /  7.8 °C 29.50in /  998.9hPa Calm   3.0mph /  4.8km/h 77% 0.00in /  0mm
01:49 53.1 °F /  11.7 °C 46.1 °F /  7.8 °C 29.50in /  998.9hPa SSE 1.0mph /  1.6km/h 3.0mph /  4.8km/h 77% 0.00in /  0mm
01:54 53.0 °F /  11.7 °C 46.3 °F /  7.9 °C 29.50in /  998.9hPa SSE 1.0mph /  1.6km/h 3.0mph /  4.8km/h 78% 0.00in /  0mm
01:59 52.8 °F /  11.6 °C 46.1 °F /  7.8 °C 29.50in /  998.9hPa South 1.0mph /  1.6km/h 3.0mph /  4.8km/h 78% 0.00in /  0mm
02:04 52.8 °F /  11.6 °C 46.5 °F /  8.1 °C 29.49in /  998.5hPa Calm   2.0mph /  3.2km/h 79% 0.00in /  0mm
02:09 52.9 °F /  11.6 °C 46.2 °F /  7.9 °C 29.49in /  998.5hPa Calm   2.0mph /  3.2km/h 78% 0.00in /  0mm
02:14 52.7 °F /  11.5 °C 46.4 °F /  8 °C 29.50in /  998.9hPa Calm   1.0mph /  1.6km/h 79% 0.00in /  0mm
02:19 52.5 °F /  11.4 °C 46.2 °F /  7.9 °C 29.50in /  998.9hPa Calm   1.0mph /  1.6km/h 79% 0.00in /  0mm
02:24 52.3 °F /  11.3 °C 46.3 °F /  7.9 °C 29.50in /  998.9hPa Calm     80% 0.00in /  0mm
02:29 52.2 °F /  11.2 °C 46.2 °F /  7.9 °C 29.50in /  998.9hPa WNW 2.0mph /  3.2km/h 2.0mph /  3.2km/h 80% 0.00in /  0mm
02:34 52.3 °F /  11.3 °C 46.3 °F /  7.9 °C 29.52in /  999.5hPa West 3.0mph /  4.8km/h 4.0mph /  6.4km/h 80% 0.00in /  0mm
02:39 52.6 °F /  11.4 °C 46.6 °F /  8.1 °C 29.53in /  999.9hPa West 3.0mph /  4.8km/h 5.0mph /  8km/h 80% 0.00in /  0mm
02:44 53.0 °F /  11.7 °C 46.7 °F /  8.2 °C 29.53in /  999.9hPa West 2.0mph /  3.2km/h 6.0mph /  9.7km/h 79% 0.00in /  0mm
02:49 53.3 °F /  11.8 °C 47.0 °F /  8.3 °C 29.53in /  999.9hPa WNW 3.0mph /  4.8km/h 6.0mph /  9.7km/h 79% 0.00in /  0mm
02:54 53.8 °F /  12.1 °C 47.1 °F /  8.4 °C 29.53in /  999.9hPa WNW 3.0mph /  4.8km/h 7.0mph /  11.3km/h 78% 0.00in /  0mm
02:59 54.1 °F /  12.3 °C 47.4 °F /  8.6 °C 29.54in /  1000.2hPa West 4.0mph /  6.4km/h 7.0mph /  11.3km/h 78% 0.00in /  0mm
03:04 54.6 °F /  12.6 °C 47.9 °F /  8.8 °C 29.55in /  1000.6hPa West 4.0mph /  6.4km/h 9.0mph /  14.5km/h 78% 0.00in /  0mm
03:09 54.9 °F /  12.7 °C 48.2 °F /  9 °C 29.55in /  1000.6hPa West 5.0mph /  8km/h 10.0mph /  16.1km/h 78% 0.00in /  0mm
03:14 54.7 °F /  12.6 °C 48.0 °F /  8.9 °C 29.55in /  1000.6hPa WSW 5.0mph /  8km/h 10.0mph /  16.1km/h 78% 0.00in /  0mm
03:19 54.6 °F /  12.6 °C 48.6 °F /  9.2 °C 29.55in /  1000.6hPa WSW 5.0mph /  8km/h 13.0mph /  20.9km/h 80% 0.00in /  0mm
03:24 54.6 °F /  12.6 °C 49.5 °F /  9.7 °C 29.54in /  1000.2hPa WSW 8.0mph /  12.9km/h 16.0mph /  25.7km/h 83% 0.02in /  0.51mm
03:29 54.4 °F /  12.4 °C 49.7 °F /  9.8 °C 29.52in /  999.5hPa SW 6.0mph /  9.7km/h 11.0mph /  17.7km/h 84% 0.02in /  0.51mm
03:34 54.0 °F /  12.2 °C 49.6 °F /  9.8 °C 29.52in /  999.5hPa SSW 2.0mph /  3.2km/h 8.0mph /  12.9km/h 85% 0.02in /  0.51mm
03:39 53.5 °F /  11.9 °C 49.1 °F /  9.5 °C 29.52in /  999.5hPa SSW 3.0mph /  4.8km/h 6.0mph /  9.7km/h 85% 0.02in /  0.51mm
03:44 53.0 °F /  11.7 °C 48.9 °F /  9.4 °C 29.52in /  999.5hPa SSW 3.0mph /  4.8km/h 5.0mph /  8km/h 86% 0.03in /  0.76mm
03:49 52.4 °F /  11.3 °C 48.3 °F /  9.1 °C 29.52in /  999.5hPa South 2.0mph /  3.2km/h 7.0mph /  11.3km/h 86% 0.03in /  0.76mm
03:54 52.0 °F /  11.1 °C 47.9 °F /  8.8 °C 29.52in /  999.5hPa South 3.0mph /  4.8km/h 7.0mph /  11.3km/h 86% 0.03in /  0.76mm
03:59 51.8 °F /  11 °C 48.1 °F /  8.9 °C 29.52in /  999.5hPa South 3.0mph /  4.8km/h 5.0mph /  8km/h 87% 0.03in /  0.76mm
04:04 51.5 °F /  10.8 °C 47.8 °F /  8.8 °C 29.51in /  999.2hPa South 2.0mph /  3.2km/h 5.0mph /  8km/h 87% 0.03in /  0.76mm
04:09 51.5 °F /  10.8 °C 48.1 °F /  8.9 °C 29.51in /  999.2hPa South 2.0mph /  3.2km/h 4.0mph /  6.4km/h 88% 0.03in /  0.76mm
04:14 51.6 °F /  10.9 °C 48.2 °F /  9 °C 29.51in /  999.2hPa South 2.0mph /  3.2km/h 4.0mph /  6.4km/h 88% 0.03in /  0.76mm
04:19 51.7 °F /  10.9 °C 48.3 °F /  9.1 °C 29.52in /  999.5hPa South 3.0mph /  4.8km/h 4.0mph /  6.4km/h 88% 0.03in /  0.76mm
04:24 51.6 °F /  10.9 °C 48.2 °F /  9 °C 29.52in /  999.5hPa South 2.0mph /  3.2km/h 4.0mph /  6.4km/h 88% 0.02in /  0.51mm
04:29 51.6 °F /  10.9 °C 48.2 °F /  9 °C 29.52in /  999.5hPa South 2.0mph /  3.2km/h 4.0mph /  6.4km/h 88% 0.03in /  0.76mm
04:34 51.8 °F /  11 °C 48.7 °F /  9.3 °C 29.51in /  999.2hPa South 2.0mph /  3.2km/h 4.0mph /  6.4km/h 89% 0.03in /  0.76mm
04:39 52.1 °F /  11.2 °C 49.0 °F /  9.4 °C 29.51in /  999.2hPa South 2.0mph /  3.2km/h 5.0mph /  8km/h 89% 0.04in /  1.02mm
04:44 52.4 °F /  11.3 °C 49.6 °F /  9.8 °C 29.51in /  999.2hPa SSE 6.0mph /  9.7km/h 7.0mph /  11.3km/h 90% 0.03in /  0.76mm
04:49 52.8 °F /  11.6 °C 49.9 °F /  9.9 °C 29.50in /  998.9hPa SSE 1.0mph /  1.6km/h 6.0mph /  9.7km/h 90% 0.03in /  0.76mm
04:54 53.1 °F /  11.7 °C 50.2 °F /  10.1 °C 29.49in /  998.5hPa South 4.0mph /  6.4km/h 5.0mph /  8km/h 90% 0.03in /  0.76mm
04:59 53.5 °F /  11.9 °C 50.6 °F /  10.3 °C 29.49in /  998.5hPa SSE 3.0mph /  4.8km/h 6.0mph /  9.7km/h 90% 0.03in /  0.76mm
05:04 53.8 °F /  12.1 °C 50.9 °F /  10.5 °C 29.49in /  998.5hPa South 3.0mph /  4.8km/h 7.0mph /  11.3km/h 90% 0.04in /  1.02mm
05:09 54.1 °F /  12.3 °C 51.2 °F /  10.7 °C 29.50in /  998.9hPa South 1.0mph /  1.6km/h 5.0mph /  8km/h 90% 0.04in /  1.02mm
05:14 54.2 °F /  12.3 °C 51.3 °F /  10.7 °C 29.49in /  998.5hPa South 2.0mph /  3.2km/h 5.0mph /  8km/h 90% 0.04in /  1.02mm
05:19 54.4 °F /  12.4 °C 51.5 °F /  10.8 °C 29.48in /  998.2hPa SSE 2.0mph /  3.2km/h 5.0mph /  8km/h 90% 0.04in /  1.02mm
05:24 54.6 °F /  12.6 °C 51.7 °F /  10.9 °C 29.48in /  998.2hPa SSW 1.0mph /  1.6km/h 5.0mph /  8km/h 90% 0.04in /  1.02mm
05:29 54.7 °F /  12.6 °C 51.8 °F /  11 °C 29.48in /  998.2hPa South 2.0mph /  3.2km/h 5.0mph /  8km/h 90% 0.03in /  0.76mm
05:34 54.9 °F /  12.7 °C 52.0 °F /  11.1 °C 29.48in /  998.2hPa South 3.0mph /  4.8km/h 6.0mph /  9.7km/h 90% 0.03in /  0.76mm
05:39 54.9 °F /  12.7 °C 51.7 °F /  10.9 °C 29.48in /  998.2hPa South 3.0mph /  4.8km/h 6.0mph /  9.7km/h 89% 0.03in /  0.76mm
05:44 54.9 °F /  12.7 °C 52.0 °F /  11.1 °C 29.48in /  998.2hPa South 2.0mph /  3.2km/h 5.0mph /  8km/h 90% 0.04in /  1.02mm
05:49 55.0 °F /  12.8 °C 52.1 °F /  11.2 °C 29.48in /  998.2hPa South 2.0mph /  3.2km/h 6.0mph /  9.7km/h 90% 0.04in /  1.02mm
05:54 55.1 °F /  12.8 °C 52.2 °F /  11.2 °C 29.47in /  997.9hPa South 3.0mph /  4.8km/h 6.0mph /  9.7km/h 90% 0.05in /  1.27mm
05:59 55.2 °F /  12.9 °C 52.0 °F /  11.1 °C 29.47in /  997.9hPa SSW 2.0mph /  3.2km/h 4.0mph /  6.4km/h 89% 0.05in /  1.27mm
06:04 55.3 °F /  12.9 °C 52.4 °F /  11.3 °C 29.46in /  997.5hPa South 4.0mph /  6.4km/h 8.0mph /  12.9km/h 90% 0.04in /  1.02mm
06:09 55.5 °F /  13.1 °C 52.3 °F /  11.3 °C 29.46in /  997.5hPa South 4.0mph /  6.4km/h 8.0mph /  12.9km/h 89% 0.05in /  1.27mm
06:14 55.5 °F /  13.1 °C 52.3 °F /  11.3 °C 29.46in /  997.5hPa South 2.0mph /  3.2km/h 10.0mph /  16.1km/h 89% 0.07in /  1.78mm
06:19 55.6 °F /  13.1 °C 52.4 °F /  11.3 °C 29.46in /  997.5hPa SSW 6.0mph /  9.7km/h 7.0mph /  11.3km/h 89% 0.08in /  2.03mm
06:24 55.7 °F /  13.2 °C 52.5 °F /  11.4 °C 29.46in /  997.5hPa South 4.0mph /  6.4km/h 10.0mph /  16.1km/h 89% 0.09in /  2.29mm
06:29 55.7 °F /  13.2 °C 52.5 °F /  11.4 °C 29.45in /  997.2hPa SSE 3.0mph /  4.8km/h 9.0mph /  14.5km/h 89% 0.09in /  2.29mm
06:34 55.7 °F /  13.2 °C 52.5 °F /  11.4 °C 29.45in /  997.2hPa SSW 4.0mph /  6.4km/h 7.0mph /  11.3km/h 89% 0.09in /  2.29mm
06:39 55.6 °F /  13.1 °C 52.4 °F /  11.3 °C 29.45in /  997.2hPa South 4.0mph /  6.4km/h 7.0mph /  11.3km/h 89% 0.09in /  2.29mm
06:44 55.5 °F /  13.1 °C 52.6 °F /  11.4 °C 29.44in /  996.8hPa South 3.0mph /  4.8km/h 6.0mph /  9.7km/h 90% 0.08in /  2.03mm
06:49 55.5 °F /  13.1 °C 52.6 °F /  11.4 °C 29.44in /  996.8hPa South 3.0mph /  4.8km/h 8.0mph /  12.9km/h 90% 0.09in /  2.29mm
06:54 55.4 °F /  13 °C 52.5 °F /  11.4 °C 29.46in /  997.5hPa South 4.0mph /  6.4km/h 8.0mph /  12.9km/h 90% 0.09in /  2.29mm
06:59 53.8 °F /  12.1 °C 49.7 °F /  9.8 °C 29.48in /  998.2hPa SW 8.0mph /  12.9km/h 22.0mph /  35.4km/h 86% 0.10in /  2.54mm
07:04 50.9 °F /  10.5 °C 46.6 °F /  8.1 °C 29.47in /  997.9hPa WSW 12.0mph /  19.3km/h 23.0mph /  37km/h 85% 0.12in /  3.05mm
07:09 48.8 °F /  9.3 °C 44.8 °F /  7.1 °C 29.45in /  997.2hPa West 4.0mph /  6.4km/h 16.0mph /  25.7km/h 86% 0.12in /  3.05mm
07:14 47.8 °F /  8.8 °C 44.4 °F /  6.9 °C 29.47in /  997.9hPa WSW 6.0mph /  9.7km/h 13.0mph /  20.9km/h 88% 0.12in /  3.05mm
07:19 47.0 °F /  8.3 °C 43.9 °F /  6.6 °C 29.48in /  998.2hPa WSW 9.0mph /  14.5km/h 13.0mph /  20.9km/h 89% 0.13in /  3.3mm
07:24 46.4 °F /  8 °C 43.3 °F /  6.3 °C 29.48in /  998.2hPa WSW 7.0mph /  11.3km/h 13.0mph /  20.9km/h 89% 0.12in /  3.05mm
07:29 45.5 °F /  7.5 °C 42.4 °F /  5.8 °C 29.48in /  998.2hPa SW 9.0mph /  14.5km/h 15.0mph /  24.1km/h 89% 0.12in /  3.05mm
07:34 44.5 °F /  6.9 °C 41.7 °F /  5.4 °C 29.49in /  998.5hPa West 7.0mph /  11.3km/h 19.0mph /  30.6km/h 90% 0.12in /  3.05mm
07:39 43.8 °F /  6.6 °C 41.1 °F /  5.1 °C 29.49in /  998.5hPa SW 8.0mph /  12.9km/h 18.0mph /  29km/h 90% 0.12in /  3.05mm
07:44 43.3 °F /  6.3 °C 40.6 °F /  4.8 °C 29.49in /  998.5hPa SW 9.0mph /  14.5km/h 18.0mph /  29km/h 90% 0.13in /  3.3mm
07:49 43.0 °F /  6.1 °C 40.6 °F /  4.8 °C 29.49in /  998.5hPa SW 8.0mph /  12.9km/h 17.0mph /  27.4km/h 91% 0.13in /  3.3mm
07:54 42.8 °F /  6 °C 40.4 °F /  4.7 °C 29.49in /  998.5hPa SW 7.0mph /  11.3km/h 13.0mph /  20.9km/h 91% 0.14in /  3.56mm
07:59 42.7 °F /  5.9 °C 40.3 °F /  4.6 °C 29.51in /  999.2hPa SW 8.0mph /  12.9km/h 17.0mph /  27.4km/h 91% 0.16in /  4.06mm
08:04 42.4 °F /  5.8 °C 40.0 °F /  4.4 °C 29.49in /  998.5hPa SW 9.0mph /  14.5km/h 17.0mph /  27.4km/h 91% 0.17in /  4.32mm
08:09 42.2 °F /  5.7 °C 40.0 °F /  4.4 °C 29.49in /  998.5hPa SW 8.0mph /  12.9km/h 17.0mph /  27.4km/h 92% 0.18in /  4.57mm
08:14 42.1 °F /  5.6 °C 39.9 °F /  4.4 °C 29.48in /  998.2hPa SW 7.0mph /  11.3km/h 12.0mph /  19.3km/h 92% 0.18in /  4.57mm
08:19 42.2 °F /  5.7 °C 40.0 °F /  4.4 °C 29.50in /  998.9hPa SW 7.0mph /  11.3km/h 12.0mph /  19.3km/h 92% 0.17in /  4.32mm
08:24 42.2 °F /  5.7 °C 40.0 °F /  4.4 °C 29.50in /  998.9hPa SW 7.0mph /  11.3km/h 16.0mph /  25.7km/h 92% 0.17in /  4.32mm
08:29 42.1 °F /  5.6 °C 39.9 °F /  4.4 °C 29.50in /  998.9hPa SW 8.0mph /  12.9km/h 10.0mph /  16.1km/h 92% 0.18in /  4.57mm
08:34 41.9 °F /  5.5 °C 39.7 °F /  4.3 °C 29.50in /  998.9hPa SW 8.0mph /  12.9km/h 14.0mph /  22.5km/h 92% 0.18in /  4.57mm
08:39 41.7 °F /  5.4 °C 39.5 °F /  4.2 °C 29.50in /  998.9hPa SW 6.0mph /  9.7km/h 16.0mph /  25.7km/h 92% 0.18in /  4.57mm
08:44 41.5 °F /  5.3 °C 39.3 °F /  4.1 °C 29.50in /  998.9hPa SW 10.0mph /  16.1km/h 19.0mph /  30.6km/h 92% 0.19in /  4.83mm
08:49 41.5 °F /  5.3 °C 39.3 °F /  4.1 °C 29.50in /  998.9hPa WSW 10.0mph /  16.1km/h 16.0mph /  25.7km/h 92% 0.18in /  4.57mm
08:54 41.3 °F /  5.2 °C 39.2 °F /  4 °C 29.50in /  998.9hPa SW 9.0mph /  14.5km/h 16.0mph /  25.7km/h 92% 0.19in /  4.83mm
08:59 41.2 °F /  5.1 °C 39.1 °F /  3.9 °C 29.50in /  998.9hPa SW 9.0mph /  14.5km/h 17.0mph /  27.4km/h 92% 0.16in /  4.06mm
09:04 41.1 °F /  5.1 °C 39.0 °F /  3.9 °C 29.51in /  999.2hPa SW 9.0mph /  14.5km/h 18.0mph /  29km/h 92% 0.14in /  3.56mm
09:09 41.0 °F /  5 °C 38.9 °F /  3.8 °C 29.51in /  999.2hPa SW 9.0mph /  14.5km/h 18.0mph /  29km/h 92% 0.12in /  3.05mm
09:14 40.8 °F /  4.9 °C 38.7 °F /  3.7 °C 29.51in /  999.2hPa SW 9.0mph /  14.5km/h 19.0mph /  30.6km/h 92% 0.11in /  2.79mm
09:19 40.6 °F /  4.8 °C 38.2 °F /  3.4 °C 29.51in /  999.2hPa SW 10.0mph /  16.1km/h 20.0mph /  32.2km/h 91% 0.10in /  2.54mm
09:24 40.4 °F /  4.7 °C 38.0 °F /  3.3 °C 29.51in /  999.2hPa SW 12.0mph /  19.3km/h 19.0mph /  30.6km/h 91% 0.10in /  2.54mm
09:29 40.3 °F /  4.6 °C 37.9 °F /  3.3 °C 29.51in /  999.2hPa SW 11.0mph /  17.7km/h 16.0mph /  25.7km/h 91% 0.10in /  2.54mm
09:34 40.2 °F /  4.6 °C 37.8 °F /  3.2 °C 29.51in /  999.2hPa SSW 6.0mph /  9.7km/h 15.0mph /  24.1km/h 91% 0.10in /  2.54mm
09:39 40.1 °F /  4.5 °C 37.7 °F /  3.2 °C 29.51in /  999.2hPa South 6.0mph /  9.7km/h 16.0mph /  25.7km/h 91% 0.09in /  2.29mm
09:44 40.1 °F /  4.5 °C 37.7 °F /  3.2 °C 29.51in /  999.2hPa SSE 8.0mph /  12.9km/h 13.0mph /  20.9km/h 91% 0.08in /  2.03mm
09:49 40.1 °F /  4.5 °C 37.4 °F /  3 °C 29.51in /  999.2hPa West 6.0mph /  9.7km/h 14.0mph /  22.5km/h 90% 0.08in /  2.03mm
09:54 40.0 °F /  4.4 °C 37.3 °F /  2.9 °C 29.51in /  999.2hPa SSW 7.0mph /  11.3km/h 13.0mph /  20.9km/h 90% 0.06in /  1.52mm
09:59 39.9 °F /  4.4 °C 37.2 °F /  2.9 °C 29.52in /  999.5hPa SW 7.0mph /  11.3km/h 15.0mph /  24.1km/h 90% 0.07in /  1.78mm
10:04 39.8 °F /  4.3 °C 37.1 °F /  2.8 °C 29.52in /  999.5hPa SW 7.0mph /  11.3km/h 15.0mph /  24.1km/h 90% 0.06in /  1.52mm
10:09 39.8 °F /  4.3 °C 37.1 °F /  2.8 °C 29.53in /  999.9hPa SW 8.0mph /  12.9km/h 19.0mph /  30.6km/h 90% 0.07in /  1.78mm
10:14 39.7 °F /  4.3 °C 37.0 °F /  2.8 °C 29.52in /  999.5hPa SW 8.0mph /  12.9km/h 19.0mph /  30.6km/h 90% 0.07in /  1.78mm
10:19 39.6 °F /  4.2 °C 36.9 °F /  2.7 °C 29.53in /  999.9hPa SW 8.0mph /  12.9km/h 18.0mph /  29km/h 90% 0.08in /  2.03mm
10:24 39.6 °F /  4.2 °C 36.9 °F /  2.7 °C 29.53in /  999.9hPa SW 7.0mph /  11.3km/h 16.0mph /  25.7km/h 90% 0.09in /  2.29mm
10:29 39.5 °F /  4.2 °C 36.8 °F /  2.7 °C 29.53in /  999.9hPa SSW 6.0mph /  9.7km/h 17.0mph /  27.4km/h 90% 0.10in /  2.54mm
10:34 39.4 °F /  4.1 °C 36.7 °F /  2.6 °C 29.53in /  999.9hPa SW 8.0mph /  12.9km/h 21.0mph /  33.8km/h 90% 0.11in /  2.79mm
10:39 39.4 °F /  4.1 °C 36.7 °F /  2.6 °C 29.53in /  999.9hPa SW 8.0mph /  12.9km/h 21.0mph /  33.8km/h 90% 0.11in /  2.79mm
10:44 39.5 °F /  4.2 °C 36.8 °F /  2.7 °C 29.52in /  999.5hPa SW 8.0mph /  12.9km/h 16.0mph /  25.7km/h 90% 0.11in /  2.79mm
10:49 39.6 °F /  4.2 °C 36.9 °F /  2.7 °C 29.52in /  999.5hPa WSW 9.0mph /  14.5km/h 15.0mph /  24.1km/h 90% 0.10in /  2.54mm
10:54 39.8 °F /  4.3 °C 37.1 °F /  2.8 °C 29.53in /  999.9hPa West 3.0mph /  4.8km/h 12.0mph /  19.3km/h 90% 0.10in /  2.54mm
10:59 39.9 °F /  4.4 °C 36.9 °F /  2.7 °C 29.52in /  999.5hPa SW 5.0mph /  8km/h 12.0mph /  19.3km/h 89% 0.09in /  2.29mm
11:04 40.0 °F /  4.4 °C 37.0 °F /  2.8 °C 29.52in /  999.5hPa WSW 5.0mph /  8km/h 13.0mph /  20.9km/h 89% 0.09in /  2.29mm
11:09 40.1 °F /  4.5 °C 36.8 °F /  2.7 °C 29.52in /  999.5hPa WSW 7.0mph /  11.3km/h 14.0mph /  22.5km/h 88% 0.08in /  2.03mm
11:14 40.4 °F /  4.7 °C 37.1 °F /  2.8 °C 29.53in /  999.9hPa SSW 8.0mph /  12.9km/h 13.0mph /  20.9km/h 88% 0.07in /  1.78mm
11:19 40.4 °F /  4.7 °C 36.8 °F /  2.7 °C 29.53in /  999.9hPa West 3.0mph /  4.8km/h 12.0mph /  19.3km/h 87% 0.06in /  1.52mm
11:24 40.6 °F /  4.8 °C 37.0 °F /  2.8 °C 29.53in /  999.9hPa SW 7.0mph /  11.3km/h 14.0mph /  22.5km/h 87% 0.04in /  1.02mm
11:29 40.4 °F /  4.7 °C 36.5 °F /  2.5 °C 29.53in /  999.9hPa West 8.0mph /  12.9km/h 14.0mph /  22.5km/h 86% 0.02in /  0.51mm
11:34 40.1 °F /  4.5 °C 36.2 °F /  2.3 °C 29.53in /  999.9hPa SW 8.0mph /  12.9km/h 16.0mph /  25.7km/h 86% 0.02in /  0.51mm
11:39 39.6 °F /  4.2 °C 35.8 °F /  2.1 °C 29.53in /  999.9hPa WSW 8.0mph /  12.9km/h 16.0mph /  25.7km/h 86% 0.02in /  0.51mm
11:44 39.4 °F /  4.1 °C 35.9 °F /  2.2 °C 29.54in /  1000.2hPa SW 8.0mph /  12.9km/h 13.0mph /  20.9km/h 87% 0.02in /  0.51mm
11:49 39.2 °F /  4 °C 35.7 °F /  2.1 °C 29.53in /  999.9hPa SW 7.0mph /  11.3km/h 15.0mph /  24.1km/h 87% 0.02in /  0.51mm
11:54 39.1 °F /  3.9 °C 35.6 °F /  2 °C 29.53in /  999.9hPa SW 8.0mph /  12.9km/h 15.0mph /  24.1km/h 87% 0.02in /  0.51mm
11:59 39.5 °F /  4.2 °C 36.0 °F /  2.2 °C 29.53in /  999.9hPa SW 7.0mph /  11.3km/h 16.0mph /  25.7km/h 87% 0.02in /  0.51mm
12:04 39.9 °F /  4.4 °C 36.3 °F /  2.4 °C 29.53in /  999.9hPa SW 8.0mph /  12.9km/h 16.0mph /  25.7km/h 87% 0.02in /  0.51mm
12:09 40.0 °F /  4.4 °C 36.2 °F /  2.3 °C 29.53in /  999.9hPa SW 9.0mph /  14.5km/h 17.0mph /  27.4km/h 86% 0.02in /  0.51mm
12:14 40.1 °F /  4.5 °C 36.0 °F /  2.2 °C 29.53in /  999.9hPa West 6.0mph /  9.7km/h 17.0mph /  27.4km/h 85% 0.02in /  0.51mm
12:19 40.0 °F /  4.4 °C 35.9 °F /  2.2 °C 29.52in /  999.5hPa WSW 10.0mph /  16.1km/h 16.0mph /  25.7km/h 85% 0.02in /  0.51mm
12:24 40.3 °F /  4.6 °C 35.8 °F /  2.1 °C 29.52in /  999.5hPa SW 10.0mph /  16.1km/h 22.0mph /  35.4km/h 84% 0.02in /  0.51mm
12:29 40.6 °F /  4.8 °C 36.1 °F /  2.3 °C 29.52in /  999.5hPa SW 12.0mph /  19.3km/h 20.0mph /  32.2km/h 84% 0.02in /  0.51mm
12:34 41.3 °F /  5.2 °C 36.8 °F /  2.7 °C 29.52in /  999.5hPa WSW 10.0mph /  16.1km/h 20.0mph /  32.2km/h 84% 0.01in /  0.25mm
12:39 41.6 °F /  5.3 °C 37.1 °F /  2.8 °C 29.52in /  999.5hPa WSW 9.0mph /  14.5km/h 20.0mph /  32.2km/h 84% 0.00in /  0mm
12:44 41.5 °F /  5.3 °C 36.1 °F /  2.3 °C 29.52in /  999.5hPa WSW 10.0mph /  16.1km/h 25.0mph /  40.2km/h 81% 0.00in /  0mm
12:49 41.4 °F /  5.2 °C 36.0 °F /  2.2 °C 29.52in /  999.5hPa West 8.0mph /  12.9km/h 23.0mph /  37km/h 81% 0.00in /  0mm
12:54 41.2 °F /  5.1 °C 35.2 °F /  1.8 °C 29.52in /  999.5hPa West 12.0mph /  19.3km/h 23.0mph /  37km/h 79% 0.00in /  0mm
12:59 40.9 °F /  4.9 °C 34.9 °F /  1.6 °C 29.52in /  999.5hPa WSW 15.0mph /  24.1km/h 31.0mph /  49.9km/h 79% 0.00in /  0mm
13:04 40.7 °F /  4.8 °C 34.7 °F /  1.5 °C 29.52in /  999.5hPa WSW 15.0mph /  24.1km/h 31.0mph /  49.9km/h 79% 0.00in /  0mm
13:09 40.8 °F /  4.9 °C 34.8 °F /  1.6 °C 29.53in /  999.9hPa WSW 14.0mph /  22.5km/h 26.0mph /  41.8km/h 79% 0.00in /  0mm
13:14 41.2 °F /  5.1 °C 34.5 °F /  1.4 °C 29.53in /  999.9hPa WSW 13.0mph /  20.9km/h 23.0mph /  37km/h 77% 0.00in /  0mm
13:19 41.8 °F /  5.4 °C 35.4 °F /  1.9 °C 29.53in /  999.9hPa SW 18.0mph /  29km/h 21.0mph /  33.8km/h 78% 0.00in /  0mm
13:24 42.0 °F /  5.6 °C 34.6 °F /  1.4 °C 29.52in /  999.5hPa WSW 12.0mph /  19.3km/h 23.0mph /  37km/h 75% 0.00in /  0mm
13:29 42.5 °F /  5.8 °C 34.5 °F /  1.4 °C 29.52in /  999.5hPa WSW 7.0mph /  11.3km/h 22.0mph /  35.4km/h 73% 0.00in /  0mm
13:34 42.7 °F /  5.9 °C 33.2 °F /  0.7 °C 29.52in /  999.5hPa WSW 12.0mph /  19.3km/h 27.0mph /  43.5km/h 69% 0.00in /  0mm
13:39 43.0 °F /  6.1 °C 34.2 °F /  1.2 °C 29.53in /  999.9hPa WSW 12.0mph /  19.3km/h 27.0mph /  43.5km/h 71% 0.00in /  0mm
13:44 42.6 °F /  5.9 °C 34.2 °F /  1.2 °C 29.53in /  999.9hPa WSW 12.0mph /  19.3km/h 26.0mph /  41.8km/h 72% 0.00in /  0mm
13:49 42.3 °F /  5.7 °C 33.9 °F /  1.1 °C 29.54in /  1000.2hPa SSW 11.0mph /  17.7km/h 23.0mph /  37km/h 72% 0.00in /  0mm
13:54 42.6 °F /  5.9 °C 34.5 °F /  1.4 °C 29.54in /  1000.2hPa SSW 21.0mph /  33.8km/h 23.0mph /  37km/h 73% 0.00in /  0mm
13:59 41.7 °F /  5.4 °C 33.7 °F /  0.9 °C 29.55in /  1000.6hPa SSW 5.0mph /  8km/h 26.0mph /  41.8km/h 73% 0.00in /  0mm
14:04 41.7 °F /  5.4 °C 34.4 °F /  1.3 °C 29.55in /  1000.6hPa WSW 13.0mph /  20.9km/h 26.0mph /  41.8km/h 75% 0.00in /  0mm
14:09 41.6 °F /  5.3 °C 33.6 °F /  0.9 °C 29.55in /  1000.6hPa WSW 12.0mph /  19.3km/h 23.0mph /  37km/h 73% 0.00in /  0mm
14:14 40.8 °F /  4.9 °C 33.2 °F /  0.7 °C 29.55in /  1000.6hPa WSW 12.0mph /  19.3km/h 23.0mph /  37km/h 74% 0.00in /  0mm
14:19 40.3 °F /  4.6 °C 32.7 °F /  0.4 °C 29.55in /  1000.6hPa WSW 13.0mph /  20.9km/h 24.0mph /  38.6km/h 74% 0.00in /  0mm
14:24 40.0 °F /  4.4 °C 32.7 °F /  0.4 °C 29.55in /  1000.6hPa West 17.0mph /  27.4km/h 22.0mph /  35.4km/h 75% 0.00in /  0mm
14:29 39.8 °F /  4.3 °C 32.5 °F /  0.3 °C 29.55in /  1000.6hPa SW 9.0mph /  14.5km/h 19.0mph /  30.6km/h 75% 0.00in /  0mm
14:34 39.7 °F /  4.3 °C 32.4 °F /  0.2 °C 29.55in /  1000.6hPa WSW 11.0mph /  17.7km/h 19.0mph /  30.6km/h 75% 0.00in /  0mm
14:39 39.6 °F /  4.2 °C 32.7 °F /  0.4 °C 29.55in /  1000.6hPa WSW 12.0mph /  19.3km/h 24.0mph /  38.6km/h 76% 0.00in /  0mm
14:44 39.5 °F /  4.2 °C 32.6 °F /  0.3 °C 29.55in /  1000.6hPa West 13.0mph /  20.9km/h 29.0mph /  46.7km/h 76% 0.00in /  0mm
14:49 39.4 °F /  4.1 °C 32.5 °F /  0.3 °C 29.55in /  1000.6hPa WSW 14.0mph /  22.5km/h 19.0mph /  30.6km/h 76% 0.00in /  0mm
14:54 39.3 °F /  4.1 °C 32.7 °F /  0.4 °C 29.55in /  1000.6hPa SW 10.0mph /  16.1km/h 22.0mph /  35.4km/h 77% 0.00in /  0mm
14:59 39.0 °F /  3.9 °C 32.7 °F /  0.4 °C 29.55in /  1000.6hPa SSE 17.0mph /  27.4km/h 22.0mph /  35.4km/h 78% 0.00in /  0mm
15:04 38.8 °F /  3.8 °C 32.5 °F /  0.3 °C 29.56in /  1000.9hPa WSW 13.0mph /  20.9km/h 31.0mph /  49.9km/h 78% 0.00in /  0mm
15:09 38.7 °F /  3.7 °C 32.7 °F /  0.4 °C 29.56in /  1000.9hPa SW 13.0mph /  20.9km/h 31.0mph /  49.9km/h 79% 0.00in /  0mm
15:14 38.5 °F /  3.6 °C 32.9 °F /  0.5 °C 29.55in /  1000.6hPa SW 13.0mph /  20.9km/h 27.0mph /  43.5km/h 80% 0.00in /  0mm
15:19 38.2 °F /  3.4 °C 32.6 °F /  0.3 °C 29.56in /  1000.9hPa WSW 13.0mph /  20.9km/h 26.0mph /  41.8km/h 80% 0.00in /  0mm
15:24 38.1 °F /  3.4 °C 32.8 °F /  0.4 °C 29.56in /  1000.9hPa SW 12.0mph /  19.3km/h 22.0mph /  35.4km/h 81% 0.00in /  0mm
15:29 38.2 °F /  3.4 °C 32.9 °F /  0.5 °C 29.56in /  1000.9hPa WSW 15.0mph /  24.1km/h 20.0mph /  32.2km/h 81% 0.00in /  0mm
15:34 38.1 °F /  3.4 °C 32.8 °F /  0.4 °C 29.56in /  1000.9hPa WSW 14.0mph /  22.5km/h 23.0mph /  37km/h 81% 0.00in /  0mm
15:39 38.0 °F /  3.3 °C 32.7 °F /  0.4 °C 29.56in /  1000.9hPa WSW 12.0mph /  19.3km/h 23.0mph /  37km/h 81% 0.00in /  0mm
15:44 37.8 °F /  3.2 °C 32.8 °F /  0.4 °C 29.58in /  1001.6hPa WSW 12.0mph /  19.3km/h 22.0mph /  35.4km/h 82% 0.00in /  0mm
15:49 37.6 °F /  3.1 °C 32.3 °F /  0.2 °C 29.57in /  1001.2hPa South 10.0mph /  16.1km/h 23.0mph /  37km/h 81% 0.00in /  0mm
15:54 37.8 °F /  3.2 °C 32.5 °F /  0.3 °C 29.58in /  1001.6hPa WSW 10.0mph /  16.1km/h 20.0mph /  32.2km/h 81% 0.00in /  0mm
15:59 37.8 °F /  3.2 °C 32.2 °F /  0.1 °C 29.58in /  1001.6hPa SW 12.0mph /  19.3km/h 21.0mph /  33.8km/h 80% 0.00in /  0mm
16:04 37.7 °F /  3.2 °C 31.8 °F /  -0.1 °C 29.59in /  1001.9hPa SW 12.0mph /  19.3km/h 21.0mph /  33.8km/h 79% 0.00in /  0mm
16:09 37.6 °F /  3.1 °C 31.7 °F /  -0.2 °C 29.60in /  1002.3hPa SW 12.0mph /  19.3km/h 21.0mph /  33.8km/h 79% 0.00in /  0mm
16:14 37.4 °F /  3 °C 31.2 °F /  -0.4 °C 29.59in /  1001.9hPa WSW 13.0mph /  20.9km/h 27.0mph /  43.5km/h 78% 0.00in /  0mm
16:19 37.4 °F /  3 °C 31.5 °F /  -0.3 °C 29.58in /  1001.6hPa WSW 13.0mph /  20.9km/h 24.0mph /  38.6km/h 79% 0.00in /  0mm
16:24 37.3 °F /  2.9 °C 31.4 °F /  -0.3 °C 29.58in /  1001.6hPa SW 10.0mph /  16.1km/h 23.0mph /  37km/h 79% 0.00in /  0mm
16:29 37.2 °F /  2.9 °C 31.3 °F /  -0.4 °C 29.58in /  1001.6hPa West 13.0mph /  20.9km/h 22.0mph /  35.4km/h 79% 0.00in /  0mm
16:34 37.2 °F /  2.9 °C 31.0 °F /  -0.6 °C 29.59in /  1001.9hPa WSW 19.0mph /  30.6km/h 26.0mph /  41.8km/h 78% 0.00in /  0mm
16:39 37.0 °F /  2.8 °C 30.8 °F /  -0.7 °C 29.59in /  1001.9hPa WSW 13.0mph /  20.9km/h 26.0mph /  41.8km/h 78% 0.00in /  0mm
16:44 36.7 °F /  2.6 °C 30.8 °F /  -0.7 °C 29.59in /  1001.9hPa WSW 14.0mph /  22.5km/h 26.0mph /  41.8km/h 79% 0.00in /  0mm
16:49 36.5 °F /  2.5 °C 30.6 °F /  -0.8 °C 29.60in /  1002.3hPa WSW 12.0mph /  19.3km/h 21.0mph /  33.8km/h 79% 0.00in /  0mm
16:54 36.3 °F /  2.4 °C 30.4 °F /  -0.9 °C 29.60in /  1002.3hPa West 12.0mph /  19.3km/h 21.0mph /  33.8km/h 79% 0.00in /  0mm
16:59 36.2 °F /  2.3 °C 30.0 °F /  -1.1 °C 29.60in /  1002.3hPa SW 16.0mph /  25.7km/h 26.0mph /  41.8km/h 78% 0.00in /  0mm
17:04 36.1 °F /  2.3 °C 29.6 °F /  -1.3 °C 29.60in /  1002.3hPa SW 10.0mph /  16.1km/h 25.0mph /  40.2km/h 77% 0.00in /  0mm
17:09 36.0 °F /  2.2 °C 29.5 °F /  -1.4 °C 29.60in /  1002.3hPa West 18.0mph /  29km/h 31.0mph /  49.9km/h 77% 0.00in /  0mm
17:14 36.0 °F /  2.2 °C 29.8 °F /  -1.2 °C 29.61in /  1002.6hPa WSW 15.0mph /  24.1km/h 31.0mph /  49.9km/h 78% 0.00in /  0mm
17:19 35.9 °F /  2.2 °C 29.4 °F /  -1.4 °C 29.61in /  1002.6hPa WSW 14.0mph /  22.5km/h 27.0mph /  43.5km/h 77% 0.00in /  0mm
17:24 35.9 °F /  2.2 °C 29.4 °F /  -1.4 °C 29.61in /  1002.6hPa SW 13.0mph /  20.9km/h 32.0mph /  51.5km/h 77% 0.00in /  0mm
17:29 35.8 °F /  2.1 °C 29.3 °F /  -1.5 °C 29.62in /  1002.9hPa SW 15.0mph /  24.1km/h 22.0mph /  35.4km/h 77% 0.00in /  0mm
17:34 35.8 °F /  2.1 °C 29.6 °F /  -1.3 °C 29.61in /  1002.6hPa WNW 10.0mph /  16.1km/h 22.0mph /  35.4km/h 78% 0.00in /  0mm
17:39 35.7 °F /  2.1 °C 29.2 °F /  -1.6 °C 29.62in /  1002.9hPa WSW 10.0mph /  16.1km/h 22.0mph /  35.4km/h 77% 0.00in /  0mm
17:44 35.7 °F /  2.1 °C 29.2 °F /  -1.6 °C 29.62in /  1002.9hPa WSW 12.0mph /  19.3km/h 22.0mph /  35.4km/h 77% 0.00in /  0mm
17:49 35.7 °F /  2.1 °C 29.2 °F /  -1.6 °C 29.62in /  1002.9hPa WSW 13.0mph /  20.9km/h 28.0mph /  45.1km/h 77% 0.00in /  0mm
17:54 35.6 °F /  2 °C 28.8 °F /  -1.8 °C 29.63in /  1003.3hPa WSW 14.0mph /  22.5km/h 28.0mph /  45.1km/h 76% 0.00in /  0mm
17:59 35.6 °F /  2 °C 28.8 °F /  -1.8 °C 29.63in /  1003.3hPa WSW 13.0mph /  20.9km/h 26.0mph /  41.8km/h 76% 0.00in /  0mm
18:04 35.5 °F /  1.9 °C 28.7 °F /  -1.8 °C 29.63in /  1003.3hPa WSW 13.0mph /  20.9km/h 25.0mph /  40.2km/h 76% 0.00in /  0mm
18:09 35.5 °F /  1.9 °C 28.7 °F /  -1.8 °C 29.64in /  1003.6hPa SW 13.0mph /  20.9km/h 24.0mph /  38.6km/h 76% 0.00in /  0mm
18:14 35.4 °F /  1.9 °C 27.9 °F /  -2.3 °C 29.64in /  1003.6hPa WSW 12.0mph /  19.3km/h 24.0mph /  38.6km/h 74% 0.00in /  0mm
18:19 35.5 °F /  1.9 °C 27.7 °F /  -2.4 °C 29.64in /  1003.6hPa SW 19.0mph /  30.6km/h 25.0mph /  40.2km/h 73% 0.00in /  0mm
18:24 35.5 °F /  1.9 °C 27.4 °F /  -2.6 °C 29.65in /  1003.9hPa SW 6.0mph /  9.7km/h 25.0mph /  40.2km/h 72% 0.00in /  0mm
18:29 35.4 °F /  1.9 °C 26.9 °F /  -2.8 °C 29.65in /  1003.9hPa WSW 10.0mph /  16.1km/h 25.0mph /  40.2km/h 71% 0.00in /  0mm
18:34 35.3 °F /  1.8 °C 27.2 °F /  -2.7 °C 29.66in /  1004.3hPa West 8.0mph /  12.9km/h 25.0mph /  40.2km/h 72% 0.00in /  0mm
18:39 35.2 °F /  1.8 °C 27.1 °F /  -2.7 °C 29.66in /  1004.3hPa WSW 12.0mph /  19.3km/h 29.0mph /  46.7km/h 72% 0.00in /  0mm
18:44 35.1 °F /  1.7 °C 27.0 °F /  -2.8 °C 29.66in /  1004.3hPa SW 11.0mph /  17.7km/h 23.0mph /  37km/h 72% 0.00in /  0mm
18:49 35.1 °F /  1.7 °C 27.0 °F /  -2.8 °C 29.67in /  1004.6hPa WSW 12.0mph /  19.3km/h 23.0mph /  37km/h 72% 0.00in /  0mm
18:54 35.0 °F /  1.7 °C 26.9 °F /  -2.8 °C 29.67in /  1004.6hPa WSW 12.0mph /  19.3km/h 25.0mph /  40.2km/h 72% 0.00in /  0mm
18:59 34.8 °F /  1.6 °C 26.0 °F /  -3.3 °C 29.68in /  1005hPa WSW 12.0mph /  19.3km/h 25.0mph /  40.2km/h 70% 0.00in /  0mm
19:04 34.6 °F /  1.4 °C 25.8 °F /  -3.4 °C 29.68in /  1005hPa WSW 13.0mph /  20.9km/h 27.0mph /  43.5km/h 70% 0.00in /  0mm
19:09 34.4 °F /  1.3 °C 26.6 °F /  -3 °C 29.69in /  1005.3hPa WNW 12.0mph /  19.3km/h 25.0mph /  40.2km/h 73% 0.00in /  0mm
19:14 34.0 °F /  1.1 °C 25.9 °F /  -3.4 °C 29.69in /  1005.3hPa SW 15.0mph /  24.1km/h 28.0mph /  45.1km/h 72% 0.00in /  0mm
19:19 33.7 °F /  0.9 °C 25.6 °F /  -3.6 °C 29.70in /  1005.6hPa WSW 11.0mph /  17.7km/h 28.0mph /  45.1km/h 72% 0.00in /  0mm
19:24 33.6 °F /  0.9 °C 25.5 °F /  -3.6 °C 29.70in /  1005.6hPa WSW 9.0mph /  14.5km/h 22.0mph /  35.4km/h 72% 0.00in /  0mm
19:29 33.6 °F /  0.9 °C 24.9 °F /  -3.9 °C 29.70in /  1005.6hPa WSW 10.0mph /  16.1km/h 26.0mph /  41.8km/h 70% 0.00in /  0mm
19:34 33.7 °F /  0.9 °C 25.0 °F /  -3.9 °C 29.71in /  1006hPa WSW 14.0mph /  22.5km/h 26.0mph /  41.8km/h 70% 0.00in /  0mm
19:39 33.7 °F /  0.9 °C 25.3 °F /  -3.7 °C 29.72in /  1006.3hPa West 13.0mph /  20.9km/h 25.0mph /  40.2km/h 71% 0.00in /  0mm
19:44 33.6 °F /  0.9 °C 25.2 °F /  -3.8 °C 29.72in /  1006.3hPa West 9.0mph /  14.5km/h 24.0mph /  38.6km/h 71% 0.00in /  0mm
19:49 33.6 °F /  0.9 °C 25.5 °F /  -3.6 °C 29.72in /  1006.3hPa WSW 13.0mph /  20.9km/h 24.0mph /  38.6km/h 72% 0.00in /  0mm
19:54 33.5 °F /  0.8 °C 25.8 °F /  -3.4 °C 29.72in /  1006.3hPa WSW 13.0mph /  20.9km/h 30.0mph /  48.3km/h 73% 0.00in /  0mm
19:59 33.4 °F /  0.8 °C 26.0 °F /  -3.3 °C 29.73in /  1006.7hPa WSW 13.0mph /  20.9km/h 30.0mph /  48.3km/h 74% 0.00in /  0mm
20:04 33.3 °F /  0.7 °C 25.9 °F /  -3.4 °C 29.73in /  1006.7hPa WSW 13.0mph /  20.9km/h 26.0mph /  41.8km/h 74% 0.00in /  0mm
20:09 32.9 °F /  0.5 °C 26.8 °F /  -2.9 °C 29.75in /  1007.3hPa WSW 13.0mph /  20.9km/h 26.0mph /  41.8km/h 78% 0.00in /  0mm
20:14 31.2 °F /  -0.4 °C 26.6 °F /  -3 °C 29.75in /  1007.3hPa West 9.0mph /  14.5km/h 23.0mph /  37km/h 83% 0.00in /  0mm
20:19 30.5 °F /  -0.8 °C 26.8 °F /  -2.9 °C 29.76in /  1007.7hPa West 10.0mph /  16.1km/h 23.0mph /  37km/h 86% 0.00in /  0mm
20:24 30.3 °F /  -0.9 °C 26.6 °F /  -3 °C 29.76in /  1007.7hPa West 5.0mph /  8km/h 14.0mph /  22.5km/h 86% 0.00in /  0mm
20:29 30.5 °F /  -0.8 °C 26.8 °F /  -2.9 °C 29.76in /  1007.7hPa West 4.0mph /  6.4km/h 13.0mph /  20.9km/h 86% 0.00in /  0mm
20:34 30.6 °F /  -0.8 °C 26.6 °F /  -3 °C 29.76in /  1007.7hPa West 4.0mph /  6.4km/h 13.0mph /  20.9km/h 85% 0.00in /  0mm
20:39 30.9 °F /  -0.6 °C 26.6 °F /  -3 °C 29.77in /  1008hPa West 4.0mph /  6.4km/h 14.0mph /  22.5km/h 84% 0.00in /  0mm
20:44 31.1 °F /  -0.5 °C 26.5 °F /  -3.1 °C 29.77in /  1008hPa West 7.0mph /  11.3km/h 13.0mph /  20.9km/h 83% 0.00in /  0mm
20:49 30.9 °F /  -0.6 °C 26.3 °F /  -3.2 °C 29.77in /  1008hPa West 8.0mph /  12.9km/h 19.0mph /  30.6km/h 83% 0.00in /  0mm
20:54 30.6 °F /  -0.8 °C 26.3 °F /  -3.2 °C 29.78in /  1008.4hPa West 8.0mph /  12.9km/h 19.0mph /  30.6km/h 84% 0.00in /  0mm
20:59 30.1 °F /  -1.1 °C 26.4 °F /  -3.1 °C 29.78in /  1008.4hPa WSW 8.0mph /  12.9km/h 18.0mph /  29km/h 86% 0.00in /  0mm
21:04 29.6 °F /  -1.3 °C 26.2 °F /  -3.2 °C 29.78in /  1008.4hPa West 9.0mph /  14.5km/h 18.0mph /  29km/h 87% 0.00in /  0mm
21:09 29.5 °F /  -1.4 °C 26.1 °F /  -3.3 °C 29.78in /  1008.4hPa West 10.0mph /  16.1km/h 14.0mph /  22.5km/h 87% 0.00in /  0mm
21:14 29.6 °F /  -1.3 °C 26.2 °F /  -3.2 °C 29.79in /  1008.7hPa WNW 12.0mph /  19.3km/h 18.0mph /  29km/h 87% 0.00in /  0mm
21:19 29.6 °F /  -1.3 °C 25.4 °F /  -3.7 °C 29.78in /  1008.4hPa West 9.0mph /  14.5km/h 18.0mph /  29km/h 84% 0.00in /  0mm
21:24 29.8 °F /  -1.2 °C 25.0 °F /  -3.9 °C 29.79in /  1008.7hPa West 8.0mph /  12.9km/h 16.0mph /  25.7km/h 82% 0.00in /  0mm
21:29 29.9 °F /  -1.2 °C 24.5 °F /  -4.2 °C 29.79in /  1008.7hPa West 7.0mph /  11.3km/h 13.0mph /  20.9km/h 80% 0.00in /  0mm
21:34 30.1 °F /  -1.1 °C 24.4 °F /  -4.2 °C 29.79in /  1008.7hPa West 6.0mph /  9.7km/h 12.0mph /  19.3km/h 79% 0.00in /  0mm
21:39 30.2 °F /  -1 °C 24.2 °F /  -4.3 °C 29.80in /  1009hPa West 8.0mph /  12.9km/h 15.0mph /  24.1km/h 78% 0.00in /  0mm
21:44 30.4 °F /  -0.9 °C 24.1 °F /  -4.4 °C 29.80in /  1009hPa WSW 8.0mph /  12.9km/h 18.0mph /  29km/h 77% 0.00in /  0mm
21:49 30.4 °F /  -0.9 °C 23.7 °F /  -4.6 °C 29.80in /  1009hPa West 7.0mph /  11.3km/h 18.0mph /  29km/h 76% 0.00in /  0mm
21:54 30.4 °F /  -0.9 °C 23.7 °F /  -4.6 °C 29.80in /  1009hPa West 8.0mph /  12.9km/h 18.0mph /  29km/h 76% 0.00in /  0mm
21:59 30.4 °F /  -0.9 °C 23.7 °F /  -4.6 °C 29.81in /  1009.4hPa WNW 4.0mph /  6.4km/h 15.0mph /  24.1km/h 76% 0.00in /  0mm
22:04 30.4 °F /  -0.9 °C 23.7 °F /  -4.6 °C 29.80in /  1009hPa NW 11.0mph /  17.7km/h 18.0mph /  29km/h 76% 0.00in /  0mm
22:09 30.4 °F /  -0.9 °C 23.7 °F /  -4.6 °C 29.81in /  1009.4hPa WNW 9.0mph /  14.5km/h 16.0mph /  25.7km/h 76% 0.00in /  0mm
22:14 29.7 °F /  -1.3 °C 23.7 °F /  -4.6 °C 29.81in /  1009.4hPa WNW 12.0mph /  19.3km/h 20.0mph /  32.2km/h 78% 0.00in /  0mm
22:19 29.1 °F /  -1.6 °C 23.7 °F /  -4.6 °C 29.81in /  1009.4hPa WNW 9.0mph /  14.5km/h 21.0mph /  33.8km/h 80% 0.00in /  0mm
22:24 29.0 °F /  -1.7 °C 23.6 °F /  -4.7 °C 29.82in /  1009.7hPa West 8.0mph /  12.9km/h 21.0mph /  33.8km/h 80% 0.00in /  0mm
22:29 29.1 °F /  -1.6 °C 23.4 °F /  -4.8 °C 29.82in /  1009.7hPa West 7.0mph /  11.3km/h 14.0mph /  22.5km/h 79% 0.00in /  0mm
22:34 29.1 °F /  -1.6 °C 23.4 °F /  -4.8 °C 29.82in /  1009.7hPa WNW 5.0mph /  8km/h 14.0mph /  22.5km/h 79% 0.00in /  0mm
22:39 29.0 °F /  -1.7 °C 23.3 °F /  -4.8 °C 29.82in /  1009.7hPa WSW 3.0mph /  4.8km/h 15.0mph /  24.1km/h 79% 0.00in /  0mm
22:44 29.0 °F /  -1.7 °C 23.3 °F /  -4.8 °C 29.82in /  1009.7hPa West 4.0mph /  6.4km/h 17.0mph /  27.4km/h 79% 0.00in /  0mm
22:49 28.9 °F /  -1.7 °C 23.5 °F /  -4.7 °C 29.82in /  1009.7hPa West 8.0mph /  12.9km/h 18.0mph /  29km/h 80% 0.00in /  0mm
22:54 28.9 °F /  -1.7 °C 23.2 °F /  -4.9 °C 29.82in /  1009.7hPa West 9.0mph /  14.5km/h 18.0mph /  29km/h 79% 0.00in /  0mm
22:59 28.9 °F /  -1.7 °C 22.9 °F /  -5.1 °C 29.82in /  1009.7hPa West 9.0mph /  14.5km/h 16.0mph /  25.7km/h 78% 0.00in /  0mm
23:04 29.0 °F /  -1.7 °C 23.0 °F /  -5 °C 29.83in /  1010hPa West 9.0mph /  14.5km/h 17.0mph /  27.4km/h 78% 0.00in /  0mm
23:09 29.0 °F /  -1.7 °C 22.7 °F /  -5.2 °C 29.83in /  1010hPa West 18.0mph /  29km/h 18.0mph /  29km/h 77% 0.00in /  0mm
23:14 29.1 °F /  -1.6 °C 22.5 °F /  -5.3 °C 29.83in /  1010hPa West 8.0mph /  12.9km/h 18.0mph /  29km/h 76% 0.00in /  0mm
23:19 29.0 °F /  -1.7 °C 21.7 °F /  -5.7 °C 29.83in /  1010hPa West 8.0mph /  12.9km/h 23.0mph /  37km/h 74% 0.00in /  0mm
23:24 29.0 °F /  -1.7 °C 21.7 °F /  -5.7 °C 29.83in /  1010hPa West 10.0mph /  16.1km/h 23.0mph /  37km/h 74% 0.00in /  0mm
23:29 29.0 °F /  -1.7 °C 21.7 °F /  -5.7 °C 29.83in /  1010hPa West 10.0mph /  16.1km/h 17.0mph /  27.4km/h 74% 0.00in /  0mm
23:34 28.9 °F /  -1.7 °C 21.7 °F /  -5.7 °C 29.83in /  1010hPa West 22.0mph /  35.4km/h 22.0mph /  35.4km/h 74% 0.00in /  0mm
23:39 28.8 °F /  -1.8 °C 21.2 °F /  -6 °C 29.84in /  1010.4hPa West 7.0mph /  11.3km/h 22.0mph /  35.4km/h 73% 0.00in /  0mm
23:44 28.8 °F /  -1.8 °C 21.2 °F /  -6 °C 29.84in /  1010.4hPa West 7.0mph /  11.3km/h 16.0mph /  25.7km/h 73% 0.00in /  0mm
23:49 28.8 °F /  -1.8 °C 20.9 °F /  -6.2 °C 29.84in /  1010.4hPa West 8.0mph /  12.9km/h 17.0mph /  27.4km/h 72% 0.00in /  0mm
23:54 28.8 °F /  -1.8 °C 21.2 °F /  -6 °C 29.84in /  1010.4hPa West 8.0mph /  12.9km/h 17.0mph /  27.4km/h 73% 0.00in /  0mm
23:59 28.7 °F /  -1.8 °C 21.8 °F /  -5.7 °C 29.84in /  1010.4hPa WNW 5.0mph /  8km/h 13.0mph /  20.9km/h 75% 0.00in /  0mm
Buffalo, New York, USA
Compliments of Weather Underground - 2.5 mb